Bookmark and Share
Track history (hours):
 

Zim Rio Grande

Last reported at 2014-Apr-22 21:28 UTC. Time now 2014-Apr-23 12:40 UTC.
Position N 37°11' W 074°27'.

Length 260 m; draft 11.2 m.

Type: Ship (hazmat cat A). MMSI: 249253000.

NotesDate/timePositionNaut miles runAvg speedWind from/ knotsBaromVisibWave heightAir tempDewpointWater temp
2014-Apr-22 21:28N 37°11' W 074°27'1615.7
2014-Apr-22 20:28N 37°27' W 074°24'2015.7
2014-Apr-22 19:11N 37°46' W 074°19'1015.8
2014-Apr-22 18:33N 37°56' W 074°16'1616.2
2014-Apr-22 17:33N 38°12' W 074°12'1716.8
2014-Apr-22 16:34N 38°28' W 074°08'1816.6
2014-Apr-22 15:30N 38°46' W 074°04'2216.5
2014-Apr-22 14:12N 39°07' W 073°59'1116.5
2014-Apr-22 13:33N 39°18' W 073°57'1616.4
2014-Apr-22 12:33N 39°34' W 073°54'1616.3
2014-Apr-22 11:34N 39°50' W 073°52'1616.5
2014-Apr-22 10:33N 40°06' W 073°50'1110.8
2014-Apr-22 09:33N 40°17' W 073°49'10 9.6
2014-Apr-22 08:34N 40°27' W 073°49'1110.7
2014-Apr-22 07:34N 40°32' W 074°01'9 8.5
2014-Apr-22 06:33N 40°39' W 074°09'2 2.2
2014-Apr-22 05:30N 40°41' W 074°09'0 0.0
2014-Apr-22 04:30N 40°41' W 074°09'0 0.0
2014-Apr-22 03:30N 40°41' W 074°09'0 0.0
2014-Apr-22 02:30N 40°41' W 074°09'0 0.0
2014-Apr-22 01:33N 40°41' W 074°09'0 0.0
2014-Apr-22 00:33N 40°41' W 074°09'0 0.0
2014-Apr-21 23:33N 40°41' W 074°09'0 0.0
2014-Apr-21 22:33N 40°41' W 074°09'0 0.0
2014-Apr-21 21:33N 40°41' W 074°09'0 0.0
2014-Apr-21 20:33N 40°41' W 074°09'0 0.0
2014-Apr-21 19:33N 40°41' W 074°09'0 0.0
2014-Apr-21 17:33N 40°41' W 074°09'0 0.0
2014-Apr-21 16:33N 40°41' W 074°09'0 0.0
2014-Apr-21 15:33N 40°41' W 074°09'0 0.0
2014-Apr-21 14:33N 40°41' W 074°09'0 0.0
2014-Apr-21 13:33N 40°41' W 074°09'0 0.0
2014-Apr-21 12:33N 40°41' W 074°09'0 0.0
2014-Apr-21 11:33N 40°41' W 074°09'0 0.0
2014-Apr-21 10:33N 40°41' W 074°09'1 1.0
2014-Apr-21 09:34N 40°40' W 074°08'5 4.6
2014-Apr-21 08:34N 40°38' W 074°03'10 9.8
2014-Apr-21 07:33N 40°30' W 073°56'9 9.1
2014-Apr-21 06:33N 40°27' W 073°44'10 9.9
2014-Apr-21 05:33N 40°28' W 073°31'1111.2
2014-Apr-21 04:33N 40°29' W 073°16'1212.0
2014-Apr-21 03:33N 40°30' W 073°01'1211.9
2014-Apr-21 02:33N 40°31' W 072°45'1212.2
2014-Apr-21 01:33N 40°31' W 072°29'1212.2
2014-Apr-21 00:33N 40°31' W 072°13'1212.1
2014-Apr-20 23:33N 40°31' W 071°57'1212.2
2014-Apr-20 22:34N 40°31' W 071°41'1212.0
2014-Apr-20 21:34N 40°32' W 071°25'1212.2
2014-Apr-20 20:33N 40°31' W 071°09'1110.8
2014-Apr-20 19:33N 40°32' W 070°55'1212.4
2014-Apr-20 18:33N 40°33' W 070°39'1212.3
2014-Apr-20 17:33N 40°33' W 070°23'1212.1
2014-Apr-20 16:33N 40°33' W 070°06'1312.3
2014-Apr-20 15:28N 40°33' W 069°49'1512.7
2014-Apr-20 14:18N 40°34' W 069°29'35111.8
2014-Apr-19 08:33N 44°23' W 063°28'1211.8
2014-Apr-19 07:33N 44°34' W 063°32'4 3.3
2014-Apr-19 06:20N 44°38' W 063°34'0 0.0
2014-Apr-19 05:26N 44°38' W 063°34'0 0.0
2014-Apr-19 04:29N 44°38' W 063°34'0 0.0
2014-Apr-19 03:29N 44°38' W 063°34'0 0.0
2014-Apr-19 02:29N 44°38' W 063°34'0 0.0
2014-Apr-19 01:29N 44°38' W 063°34'0 0.0
2014-Apr-19 00:32N 44°38' W 063°34'0 0.0
2014-Apr-18 23:32N 44°38' W 063°34'0 0.0
2014-Apr-18 22:32N 44°38' W 063°34'0 0.0
2014-Apr-18 21:32N 44°38' W 063°34'4 4.5
2014-Apr-18 20:33N 44°34' W 063°32'1413.6
2014-Apr-18 19:33N 44°22' W 063°22'  

Dump ship's entire track history

sailing weather and tide predictions

Zim Rio Grande — 9HNV9 — position and weather